Time;durP1;ratioP1;P1;durP2;ratioP2;P2;SDS_P1;SDS_P2;PMS_P1;PMS_P2;Temp;Humidity;BMP_temperature;BMP_pressure;BME280_temperature;BME280_humidity;BME280_pressure;Samples;Min_cycle;Max_cycle;Signal;HPM_P1;HPM_P2
2023/09/14 00:00:45;;;;;;;19.00;12.75;;;19.70;99.90;;;;;;4990254;28;20054;-75
2023/09/14 00:03:11;;;;;;;19.05;14.20;;;19.60;99.90;;;;;;4990842;28;20440;-74
2023/09/14 00:05:40;;;;;;;19.25;13.45;;;19.80;99.90;;;;;;4992096;28;20117;-74
2023/09/14 00:08:06;;;;;;;22.98;13.10;;;19.70;99.90;;;;;;4991692;28;20476;-75
2023/09/14 00:10:32;;;;;;;17.83;12.60;;;19.60;99.90;;;;;;4992921;28;20026;-74
2023/09/14 00:12:58;;;;;;;20.95;13.43;;;19.50;99.90;;;;;;4989166;28;20071;-74
2023/09/14 00:15:24;;;;;;;18.83;14.82;;;19.50;99.90;;;;;;4995055;28;20037;-75
2023/09/14 00:17:50;;;;;;;17.25;13.45;;;19.40;99.90;;;;;;4997495;28;20038;-74
2023/09/14 00:20:23;;;;;;;19.63;13.93;;;19.40;99.90;;;;;;4997410;28;20116;-74
2023/09/14 00:22:53;;;;;;;16.05;12.73;;;19.50;99.90;;;;;;5000805;28;20559;-74
2023/09/14 00:25:23;;;;;;;18.00;14.55;;;19.40;99.90;;;;;;4990811;28;20029;-75
2023/09/14 00:27:49;;;;;;;16.52;13.75;;;19.50;99.90;;;;;;4992890;28;20101;-74
2023/09/14 00:30:15;;;;;;;16.55;13.93;;;19.40;99.90;;;;;;4989517;28;20034;-74
2023/09/14 00:32:42;;;;;;;19.17;13.80;;;19.50;99.90;;;;;;4991105;28;20084;-75
2023/09/14 00:35:09;;;;;;;16.75;14.15;;;19.50;99.90;;;;;;4995452;28;20084;-74
2023/09/14 00:37:35;;;;;;;23.73;15.07;;;19.50;99.90;;;;;;4993614;28;20404;-74
2023/09/14 00:40:06;;;;;;;22.65;15.48;;;19.60;99.90;;;;;;4989838;28;20038;-75
2023/09/14 00:42:40;;;;;;;18.77;15.32;;;19.60;99.90;;;;;;4991918;28;20041;-74
2023/09/14 00:45:17;;;;;;;18.52;14.50;;;19.60;99.90;;;;;;4991767;28;20030;-74
2023/09/14 00:47:53;;;;;;;17.75;14.25;;;19.40;99.90;;;;;;4989986;28;20121;-75
2023/09/14 00:50:20;;;;;;;17.92;13.38;;;19.40;99.90;;;;;;4993071;28;20030;-74
2023/09/14 00:53:06;;;;;;;21.10;15.18;;;19.30;99.90;;;;;;4990974;28;20034;-75
2023/09/14 00:55:32;;;;;;;18.08;14.52;;;19.30;99.90;;;;;;4996527;28;20109;-75
2023/09/14 00:57:59;;;;;;;20.05;14.45;;;19.30;99.90;;;;;;4992504;28;20046;-74
2023/09/14 01:00:25;;;;;;;18.58;14.15;;;19.30;99.90;;;;;;4995474;28;20072;-74
2023/09/14 01:02:52;;;;;;;18.23;13.90;;;19.30;99.90;;;;;;4991770;28;20034;-74
2023/09/14 01:05:18;;;;;;;19.25;13.95;;;19.30;99.90;;;;;;4989675;28;20030;-75
2023/09/14 01:07:44;;;;;;;18.08;13.45;;;19.40;99.90;;;;;;4994398;28;20494;-75
2023/09/14 01:10:10;;;;;;;21.80;15.20;;;19.50;99.90;;;;;;4994861;28;20376;-75
2023/09/14 01:12:37;;;;;;;17.02;14.05;;;19.60;99.90;;;;;;4990381;28;20039;-74
2023/09/14 01:15:07;;;;;;;19.45;14.65;;;19.60;99.90;;;;;;4990717;28;20080;-75
2023/09/14 01:18:02;;;;;;;17.85;13.77;;;19.60;99.90;;;;;;4995011;28;20037;-75
2023/09/14 01:20:52;;;;;;;17.05;13.75;;;19.60;99.90;;;;;;4992626;28;20042;-75
2023/09/14 01:23:42;;;;;;;19.58;13.10;;;19.40;99.90;;;;;;4999122;28;20048;-74
2023/09/14 01:26:09;;;;;;;17.80;12.90;;;19.30;99.90;;;;;;4991969;28;20060;-75
2023/09/14 01:28:35;;;;;;;15.60;12.35;;;19.30;99.90;;;;;;4990050;28;20026;-74
2023/09/14 01:31:01;;;;;;;17.02;13.35;;;19.40;99.90;;;;;;4990874;28;20105;-74
2023/09/14 01:33:29;;;;;;;18.05;12.63;;;19.40;99.90;;;;;;4993521;28;22783;-74
2023/09/14 01:36:30;;;;;;;17.38;12.57;;;19.40;99.90;;;;;;4993480;28;20038;-74
2023/09/14 01:38:56;;;;;;;16.73;12.40;;;19.20;99.90;;;;;;4991190;28;20555;-75
2023/09/14 01:41:23;;;;;;;20.05;11.93;;;19.00;99.90;;;;;;4988330;28;20030;-74
2023/09/14 01:43:53;;;;;;;16.60;12.48;;;19.10;99.90;;;;;;4990357;28;20607;-74
2023/09/14 01:46:19;;;;;;;15.30;11.80;;;19.00;99.90;;;;;;4991293;28;20027;-75
2023/09/14 01:48:45;;;;;;;16.48;12.40;;;19.00;99.90;;;;;;4992682;28;20030;-75
2023/09/14 01:51:11;;;;;;;15.38;12.57;;;19.10;99.90;;;;;;4997173;28;20137;-75
2023/09/14 01:53:37;;;;;;;13.82;11.68;;;19.00;99.90;;;;;;4993029;28;20022;-74
2023/09/14 01:56:03;;;;;;;15.68;12.55;;;19.10;99.90;;;;;;4989620;28;20039;-74
2023/09/14 01:58:29;;;;;;;15.07;11.70;;;19.10;99.90;;;;;;4988552;28;20062;-74
2023/09/14 02:00:56;;;;;;;16.40;11.45;;;19.10;99.90;;;;;;4993996;28;20494;-74
2023/09/14 02:03:22;;;;;;;15.45;11.50;;;19.10;99.90;;;;;;4988818;28;20027;-74
2023/09/14 02:05:57;;;;;;;10.52;8.57;;;19.10;99.90;;;;;;4991134;28;20026;-75
2023/09/14 02:08:24;;;;;;;14.02;8.15;;;19.10;99.90;;;;;;4992212;28;20121;-75
2023/09/14 02:10:49;;;;;;;10.18;7.40;;;19.10;99.90;;;;;;4992558;28;20094;-75
2023/09/14 02:13:15;;;;;;;11.13;7.55;;;19.10;99.90;;;;;;4996723;28;20026;-75
2023/09/14 02:15:41;;;;;;;15.75;8.32;;;19.10;99.90;;;;;;4993698;28;20044;-75
2023/09/14 02:18:07;;;;;;;14.35;8.48;;;19.10;99.90;;;;;;4994990;28;20034;-74
2023/09/14 02:20:35;;;;;;;10.77;6.47;;;19.10;99.90;;;;;;4993632;28;20528;-74
2023/09/14 02:23:01;;;;;;;9.98;6.75;;;19.00;99.90;;;;;;5000663;28;20026;-75
2023/09/14 02:25:27;;;;;;;9.00;6.00;;;18.90;99.90;;;;;;4994679;28;20440;-75
2023/09/14 02:27:53;;;;;;;9.25;5.50;;;18.70;99.90;;;;;;4991740;28;20058;-75
2023/09/14 02:30:19;;;;;;;10.25;7.07;;;18.70;99.90;;;;;;4993652;28;20472;-75
2023/09/14 02:32:44;;;;;;;8.15;6.15;;;18.70;99.90;;;;;;4995322;28;20117;-74
2023/09/14 02:35:10;;;;;;;9.82;7.28;;;18.80;99.90;;;;;;4991521;28;20034;-75
2023/09/14 02:37:36;;;;;;;11.55;7.60;;;18.70;99.90;;;;;;4993862;28;20035;-75
2023/09/14 02:40:03;;;;;;;9.73;7.40;;;18.80;99.90;;;;;;4995596;28;20042;-74
2023/09/14 02:42:28;;;;;;;11.00;8.27;;;18.70;99.90;;;;;;4992759;28;20062;-75
2023/09/14 02:44:54;;;;;;;14.95;7.65;;;18.50;99.90;;;;;;5000663;28;20070;-74
2023/09/14 02:47:20;;;;;;;11.82;8.27;;;18.50;99.90;;;;;;4993162;28;20042;-74
2023/09/14 02:49:45;;;;;;;12.20;8.93;;;18.50;99.90;;;;;;5003384;28;20022;-75
2023/09/14 02:52:11;;;;;;;14.77;10.23;;;18.60;99.90;;;;;;4997491;28;20037;-74
2023/09/14 02:54:36;;;;;;;17.17;8.85;;;18.60;99.90;;;;;;5002112;28;20050;-74
2023/09/14 02:57:02;;;;;;;13.68;9.68;;;18.70;99.90;;;;;;4996895;28;20076;-75
2023/09/14 02:59:28;;;;;;;14.00;10.02;;;18.60;99.90;;;;;;5000009;28;20072;-75
2023/09/14 03:01:54;;;;;;;13.77;10.40;;;18.60;99.90;;;;;;4994220;28;20042;-74
2023/09/14 03:04:19;;;;;;;14.55;11.00;;;18.60;99.90;;;;;;4987129;28;20030;-75
2023/09/14 03:06:45;;;;;;;14.05;11.32;;;18.70;99.90;;;;;;4985472;28;20081;-75
2023/09/14 03:09:11;;;;;;;15.50;11.90;;;18.70;99.90;;;;;;4989249;28;20022;-75
2023/09/14 03:11:36;;;;;;;13.65;11.35;;;18.70;99.90;;;;;;4990346;28;20033;-75
2023/09/14 03:14:02;;;;;;;14.80;11.68;;;18.70;99.90;;;;;;4990168;28;20034;-75
2023/09/14 03:16:28;;;;;;;17.92;14.20;;;18.60;99.90;;;;;;4989917;28;20388;-74
2023/09/14 03:18:53;;;;;;;16.00;12.57;;;18.70;99.90;;;;;;4987884;28;20045;-76
2023/09/14 03:21:24;;;;;;;16.63;13.07;;;18.80;99.90;;;;;;4982853;28;20029;-74
2023/09/14 03:23:50;;;;;;;17.25;14.27;;;18.80;99.90;;;;;;4986396;28;20038;-75
2023/09/14 03:26:17;;;;;;;17.30;13.68;;;18.80;99.90;;;;;;4983012;28;20030;-75
2023/09/14 03:28:43;;;;;;;18.20;13.00;;;18.90;99.90;;;;;;4987844;28;20544;-75
2023/09/14 03:31:09;;;;;;;20.33;14.25;;;18.90;99.90;;;;;;4986405;28;20034;-75
2023/09/14 03:33:35;;;;;;;22.20;16.67;;;18.90;99.90;;;;;;4985991;28;20056;-75
2023/09/14 03:36:01;;;;;;;19.90;15.35;;;18.90;99.90;;;;;;4985444;28;20409;-75
2023/09/14 03:38:28;;;;;;;19.88;15.60;;;18.90;99.90;;;;;;4984372;28;20038;-75
2023/09/14 03:40:54;;;;;;;19.63;15.27;;;18.90;99.90;;;;;;4985522;28;20030;-75
2023/09/14 03:43:20;;;;;;;20.73;16.58;;;19.00;99.90;;;;;;4992509;28;20461;-74
2023/09/14 03:45:46;;;;;;;22.65;17.13;;;19.00;99.90;;;;;;4992313;28;20041;-75
2023/09/14 03:48:12;;;;;;;20.63;16.35;;;19.00;99.90;;;;;;4984559;28;20026;-75
2023/09/14 03:50:38;;;;;;;21.50;17.35;;;19.00;99.90;;;;;;4991052;28;20040;-75
2023/09/14 03:53:04;;;;;;;23.52;19.08;;;19.00;99.90;;;;;;4994970;28;20041;-74
2023/09/14 03:55:30;;;;;;;21.23;18.02;;;19.00;99.90;;;;;;4986035;28;20026;-75
2023/09/14 03:57:57;;;;;;;21.92;16.65;;;18.90;99.90;;;;;;4982800;28;20054;-75
2023/09/14 04:00:23;;;;;;;23.92;16.88;;;18.70;99.90;;;;;;4983399;28;20061;-75
2023/09/14 04:02:49;;;;;;;22.95;16.25;;;18.70;99.90;;;;;;4983381;28;20140;-74
2023/09/14 04:05:17;;;;;;;18.77;14.63;;;18.80;99.90;;;;;;4989029;28;20038;-75
2023/09/14 04:07:46;;;;;;;22.55;16.42;;;18.80;99.90;;;;;;4983798;28;20046;-75
2023/09/14 04:10:12;;;;;;;20.27;15.55;;;18.70;99.90;;;;;;4983323;28;20176;-75
2023/09/14 04:12:42;;;;;;;18.85;14.90;;;18.70;99.90;;;;;;4982713;28;20050;-75
2023/09/14 04:15:08;;;;;;;20.48;15.32;;;18.60;99.90;;;;;;4983833;28;20037;-75
2023/09/14 04:17:35;;;;;;;16.42;13.98;;;18.60;99.90;;;;;;4984017;28;20034;-75
2023/09/14 04:20:09;;;;;;;20.42;14.38;;;18.60;99.90;;;;;;4984855;28;20049;-75
2023/09/14 04:22:35;;;;;;;17.17;14.38;;;18.60;99.90;;;;;;4987986;28;20060;-74
2023/09/14 04:25:00;;;;;;;18.48;14.77;;;18.40;99.90;;;;;;4982389;28;20030;-75
2023/09/14 04:27:26;;;;;;;20.25;14.98;;;18.40;99.90;;;;;;4985343;28;20797;-74
2023/09/14 04:29:52;;;;;;;16.27;13.57;;;18.40;99.90;;;;;;4985531;28;20030;-75
2023/09/14 04:32:18;;;;;;;16.63;13.75;;;18.30;99.90;;;;;;4983558;28;20092;-74
2023/09/14 04:34:43;;;;;;;16.38;12.88;;;18.40;99.90;;;;;;4982892;28;20716;-74
2023/09/14 04:37:09;;;;;;;18.67;14.23;;;18.40;99.90;;;;;;4985609;28;20979;-75
2023/09/14 04:39:35;;;;;;;20.58;15.02;;;18.40;99.90;;;;;;4984614;28;20171;-75
2023/09/14 04:42:01;;;;;;;16.48;13.05;;;18.40;99.90;;;;;;4984015;28;20477;-74
2023/09/14 04:44:26;;;;;;;18.50;13.48;;;18.40;99.90;;;;;;4990722;28;20036;-75
2023/09/14 04:46:52;;;;;;;16.95;12.48;;;18.40;99.90;;;;;;4982423;28;20026;-74
2023/09/14 04:49:18;;;;;;;17.75;12.98;;;18.40;99.90;;;;;;4983745;28;20150;-74
2023/09/14 04:51:43;;;;;;;17.10;14.30;;;18.40;99.90;;;;;;4990636;28;20046;-75
2023/09/14 04:54:09;;;;;;;19.30;12.60;;;18.30;99.90;;;;;;4982832;28;20034;-74
2023/09/14 04:56:34;;;;;;;19.73;13.32;;;18.40;99.90;;;;;;4987648;28;20057;-75
2023/09/14 04:59:02;;;;;;;18.05;13.43;;;18.30;99.90;;;;;;4984073;28;20054;-74
2023/09/14 05:01:27;;;;;;;19.85;14.35;;;18.30;99.90;;;;;;4986470;28;20018;-74
2023/09/14 05:03:53;;;;;;;18.25;13.35;;;18.50;99.90;;;;;;4983942;28;20041;-74
2023/09/14 05:06:18;;;;;;;18.33;13.75;;;18.50;99.90;;;;;;4986694;28;20025;-74
2023/09/14 05:08:44;;;;;;;16.50;13.73;;;18.40;99.90;;;;;;4984304;28;20109;-74
2023/09/14 05:11:10;;;;;;;18.55;14.05;;;18.40;99.90;;;;;;4981852;28;20117;-75
2023/09/14 05:13:35;;;;;;;16.83;13.20;;;18.50;99.90;;;;;;4981771;28;20023;-75
2023/09/14 05:16:02;;;;;;;17.95;12.52;;;18.70;99.90;;;;;;4984475;28;20066;-75
2023/09/14 05:18:28;;;;;;;19.00;12.75;;;18.70;99.90;;;;;;4980946;28;20053;-75
2023/09/14 05:20:54;;;;;;;15.88;13.07;;;18.90;99.90;;;;;;4980512;28;20037;-75
2023/09/14 05:23:20;;;;;;;42.33;12.55;;;19.00;99.90;;;;;;4987080;28;20035;-76
2023/09/14 05:25:45;;;;;;;14.63;11.77;;;19.00;99.90;;;;;;4988955;28;20520;-75
2023/09/14 05:28:12;;;;;;;13.60;9.90;;;19.00;99.90;;;;;;4981171;28;20037;-77
2023/09/14 05:30:38;;;;;;;16.42;11.70;;;19.00;99.90;;;;;;4983070;28;20030;-74
2023/09/14 05:33:04;;;;;;;14.60;10.88;;;19.10;99.90;;;;;;4988006;28;20030;-76
2023/09/14 05:35:31;;;;;;;18.45;12.10;;;18.90;99.90;;;;;;4985018;28;20529;-75
2023/09/14 05:37:56;;;;;;;18.15;13.18;;;18.90;99.90;;;;;;4982127;28;20040;-77
2023/09/14 05:40:22;;;;;;;15.80;11.77;;;18.80;99.90;;;;;;4991086;28;20030;-75
2023/09/14 05:42:48;;;;;;;15.05;11.95;;;18.80;99.90;;;;;;4985297;28;20093;-75
2023/09/14 05:45:13;;;;;;;15.23;11.93;;;18.70;99.90;;;;;;4987032;28;20065;-75
2023/09/14 05:47:40;;;;;;;15.63;11.40;;;18.70;99.90;;;;;;4989273;28;20483;-75
2023/09/14 05:50:10;;;;;;;15.27;11.27;;;18.60;99.90;;;;;;4987868;28;20031;-75
2023/09/14 05:52:36;;;;;;;15.93;12.10;;;18.50;99.90;;;;;;4986947;28;20025;-75
2023/09/14 05:55:05;;;;;;;12.18;10.30;;;18.50;99.90;;;;;;4992093;28;20034;-74
2023/09/14 05:57:31;;;;;;;14.45;10.25;;;18.50;99.90;;;;;;4990794;28;20050;-74
2023/09/14 05:59:58;;;;;;;13.63;10.30;;;18.50;99.90;;;;;;4987377;28;20042;-74
2023/09/14 06:02:24;;;;;;;14.55;9.88;;;18.50;99.90;;;;;;4996669;28;20108;-75
2023/09/14 06:04:50;;;;;;;11.55;9.52;;;18.40;99.90;;;;;;4992336;28;20114;-74
2023/09/14 06:07:16;;;;;;;16.90;11.18;;;18.30;99.90;;;;;;4989989;28;20030;-75
2023/09/14 06:09:42;;;;;;;14.25;10.43;;;18.30;99.90;;;;;;4998269;28;20028;-75
2023/09/14 06:12:07;;;;;;;14.25;11.23;;;18.20;99.90;;;;;;4995938;28;20468;-75
2023/09/14 06:14:33;;;;;;;13.75;11.15;;;18.20;99.90;;;;;;4988026;28;20030;-75
2023/09/14 06:16:59;;;;;;;15.88;11.43;;;18.30;99.90;;;;;;4991665;28;20048;-75
2023/09/14 06:19:25;;;;;;;15.68;11.43;;;18.40;99.90;;;;;;4987623;28;20042;-75
2023/09/14 06:21:52;;;;;;;17.35;11.43;;;18.40;99.90;;;;;;4986484;28;20617;-74
2023/09/14 06:24:18;;;;;;;13.90;10.38;;;18.60;99.90;;;;;;4989365;28;20110;-75
2023/09/14 06:26:44;;;;;;;17.38;11.27;;;18.70;99.90;;;;;;4991907;28;20038;-75
2023/09/14 06:29:13;;;;;;;14.77;10.50;;;18.80;99.90;;;;;;4984285;28;20026;-74
2023/09/14 06:31:39;;;;;;;17.75;10.35;;;18.80;99.90;;;;;;4996972;28;20037;-74
2023/09/14 06:34:05;;;;;;;12.15;9.55;;;18.80;99.90;;;;;;4987699;28;20060;-75
2023/09/14 06:36:30;;;;;;;15.50;10.40;;;19.00;99.90;;;;;;4990290;28;20464;-75
2023/09/14 06:38:56;;;;;;;14.43;10.07;;;19.00;99.90;;;;;;4985870;28;20129;-75
2023/09/14 06:41:22;;;;;;;14.15;10.55;;;19.00;99.90;;;;;;4990765;28;20034;-75
2023/09/14 06:43:48;;;;;;;15.15;9.27;;;19.10;99.90;;;;;;4991447;28;20388;-75
2023/09/14 06:46:13;;;;;;;12.20;9.75;;;19.20;99.90;;;;;;4994030;28;20538;-75
2023/09/14 06:48:40;;;;;;;13.40;10.43;;;19.20;99.90;;;;;;4990967;28;20037;-75
2023/09/14 06:51:06;;;;;;;16.90;12.10;;;19.30;99.90;;;;;;4985928;28;20066;-75
2023/09/14 06:53:35;;;;;;;15.02;12.02;;;19.30;99.90;;;;;;4984302;28;20053;-75
2023/09/14 06:56:07;;;;;;;14.35;12.07;;;19.40;99.90;;;;;;4990762;28;20100;-75
2023/09/14 06:58:33;;;;;;;16.33;11.48;;;19.50;99.90;;;;;;4990160;28;20050;-76
2023/09/14 07:01:03;;;;;;;21.88;12.30;;;19.70;99.90;;;;;;4991241;28;20091;-76
2023/09/14 07:03:28;;;;;;;18.10;12.15;;;20.30;99.90;;;;;;4988262;28;26079;-78
2023/09/14 07:05:54;;;;;;;13.38;11.15;;;22.40;99.90;;;;;;4988089;28;20057;-78
2023/09/14 07:08:20;;;;;;;13.63;10.80;;;23.30;99.90;;;;;;4987757;28;20029;-75
2023/09/14 07:10:45;;;;;;;17.30;12.18;;;22.10;99.90;;;;;;4993746;28;20041;-76
2023/09/14 07:13:11;;;;;;;17.15;13.10;;;20.90;99.90;;;;;;4988575;28;20030;-76
2023/09/14 07:15:37;;;;;;;16.45;13.07;;;20.40;99.90;;;;;;4983710;28;20046;-76
2023/09/14 07:18:02;;;;;;;15.60;12.55;;;20.00;99.90;;;;;;4984862;28;20041;-76
2023/09/14 07:20:28;;;;;;;15.93;12.45;;;19.90;99.90;;;;;;4985174;28;20121;-76
2023/09/14 07:22:54;;;;;;;15.00;12.02;;;19.80;99.90;;;;;;4986836;28;20062;-76
2023/09/14 07:25:20;;;;;;;15.90;11.88;;;19.70;99.90;;;;;;4985880;28;20026;-75
2023/09/14 07:27:45;;;;;;;15.85;11.27;;;19.80;99.90;;;;;;4986322;28;20045;-76
2023/09/14 07:30:14;;;;;;;14.13;11.60;;;19.70;99.90;;;;;;4986677;28;20053;-76
2023/09/14 07:32:42;;;;;;;18.75;13.00;;;19.70;99.90;;;;;;4986520;28;20037;-75
2023/09/14 07:35:08;;;;;;;15.20;12.57;;;19.80;99.90;;;;;;4986762;28;20026;-75
2023/09/14 07:37:36;;;;;;;15.50;12.05;;;19.90;99.90;;;;;;4989522;28;20036;-75
2023/09/14 07:40:03;;;;;;;16.40;12.70;;;19.90;99.90;;;;;;4994358;28;20057;-75
2023/09/14 07:42:29;;;;;;;16.08;13.05;;;20.00;99.90;;;;;;4994148;28;20640;-75
2023/09/14 07:44:54;;;;;;;16.08;12.88;;;20.00;99.90;;;;;;4993115;28;20077;-75
2023/09/14 07:47:24;;;;;;;15.05;12.25;;;20.00;99.90;;;;;;4993872;28;20030;-75
2023/09/14 07:49:50;;;;;;;16.70;12.32;;;20.10;99.90;;;;;;4988395;28;20034;-76
2023/09/14 07:52:15;;;;;;;16.67;13.38;;;20.00;99.90;;;;;;4993917;28;20384;-76
2023/09/14 07:54:41;;;;;;;14.82;12.50;;;20.00;99.90;;;;;;4996458;28;20036;-76
2023/09/14 07:57:07;;;;;;;19.00;13.40;;;20.00;99.90;;;;;;4995429;28;20026;-75
2023/09/14 07:59:32;;;;;;;16.15;13.05;;;20.00;99.90;;;;;;4996523;28;20049;-76
2023/09/14 08:01:58;;;;;;;18.13;13.60;;;20.10;99.90;;;;;;4995834;28;20514;-76
2023/09/14 08:04:23;;;;;;;16.13;13.60;;;20.10;99.90;;;;;;4988312;28;20049;-76
2023/09/14 08:06:49;;;;;;;15.40;13.73;;;20.10;99.90;;;;;;4984117;28;20612;-76
2023/09/14 08:09:15;;;;;;;17.30;13.70;;;20.10;99.90;;;;;;4995142;28;20032;-76
2023/09/14 08:11:42;;;;;;;16.98;13.20;;;20.20;99.90;;;;;;4993301;28;20080;-76
2023/09/14 08:14:07;;;;;;;17.63;12.48;;;20.20;99.90;;;;;;4989476;28;20038;-76
2023/09/14 08:16:33;;;;;;;21.48;14.18;;;20.20;99.90;;;;;;4988122;28;20479;-76
2023/09/14 08:18:59;;;;;;;15.35;12.15;;;20.30;99.90;;;;;;4992734;28;20042;-76
2023/09/14 08:21:25;;;;;;;18.85;13.98;;;20.30;99.90;;;;;;4994569;28;20029;-76
2023/09/14 08:23:53;;;;;;;15.70;13.00;;;20.30;99.90;;;;;;4993246;28;20060;-76
2023/09/14 08:26:19;;;;;;;19.20;14.68;;;20.40;99.90;;;;;;4991764;28;20018;-76
2023/09/14 08:28:45;;;;;;;18.25;14.52;;;20.50;99.90;;;;;;4985503;28;20052;-76
2023/09/14 08:31:10;;;;;;;15.43;12.95;;;20.60;99.90;;;;;;4993982;28;20116;-76
2023/09/14 08:33:36;;;;;;;18.55;12.38;;;20.60;99.90;;;;;;4987868;28;20504;-76
2023/09/14 08:36:02;;;;;;;16.10;11.88;;;20.70;99.90;;;;;;4989362;28;20476;-76
2023/09/14 08:38:28;;;;;;;16.02;13.00;;;20.90;99.90;;;;;;4987343;28;20026;-76
2023/09/14 08:40:56;;;;;;;19.60;13.45;;;20.90;99.90;;;;;;4982289;28;20033;-75
2023/09/14 08:43:22;;;;;;;16.13;13.90;;;20.90;99.90;;;;;;4990158;28;20161;-77
2023/09/14 08:45:50;;;;;;;16.60;14.02;;;20.90;99.90;;;;;;4987253;28;20042;-76
2023/09/14 08:48:19;;;;;;;17.23;14.07;;;20.90;99.90;;;;;;4986437;28;20111;-76
2023/09/14 08:50:45;;;;;;;16.95;13.48;;;20.90;99.90;;;;;;4983796;28;20035;-77
2023/09/14 08:53:14;;;;;;;17.55;13.02;;;20.90;99.90;;;;;;4986035;28;20027;-77
2023/09/14 08:55:40;;;;;;;16.98;12.70;;;20.90;99.90;;;;;;4989098;28;20396;-76
2023/09/14 08:58:07;;;;;;;18.95;12.95;;;21.10;99.90;;;;;;4990151;28;20138;-76
2023/09/14 09:00:33;;;;;;;17.67;13.75;;;21.20;99.90;;;;;;4996986;28;20033;-76
2023/09/14 09:02:59;;;;;;;18.23;13.98;;;21.20;99.90;;;;;;4988805;28;20030;-77
2023/09/14 09:05:25;;;;;;;16.70;12.93;;;21.30;99.90;;;;;;4985143;28;20030;-77
2023/09/14 09:07:52;;;;;;;15.68;12.75;;;21.30;99.90;;;;;;4985905;28;20030;-78
2023/09/14 09:10:31;;;;;;;19.90;13.05;;;21.30;99.90;;;;;;4986182;28;20030;-77
2023/09/14 09:13:02;;;;;;;16.88;12.73;;;21.20;99.90;;;;;;4989466;28;20088;-76
2023/09/14 09:15:30;;;;;;;14.75;11.85;;;21.10;99.90;;;;;;4990771;28;20508;-76
2023/09/14 09:18:08;;;;;;;16.85;12.40;;;21.20;99.90;;;;;;4984918;28;20054;-76
2023/09/14 09:20:36;;;;;;;13.10;10.50;;;21.50;99.90;;;;;;4986646;28;20396;-76
2023/09/14 09:23:02;;;;;;;14.73;11.82;;;21.50;99.90;;;;;;4986462;28;20076;-77
2023/09/14 09:25:42;;;;;;;18.65;11.20;;;21.50;99.90;;;;;;4984326;28;20104;-76
2023/09/14 09:28:07;;;;;;;14.48;11.68;;;21.60;99.90;;;;;;4985739;28;20084;-76
2023/09/14 09:30:35;;;;;;;14.90;10.55;;;21.90;99.90;;;;;;4986066;28;20034;-77
2023/09/14 09:33:01;;;;;;;14.63;11.32;;;22.10;99.90;;;;;;4984597;28;20026;-77
2023/09/14 09:35:29;;;;;;;13.95;10.65;;;23.40;99.90;;;;;;4990955;28;20539;-76
2023/09/14 09:37:57;;;;;;;14.90;10.20;;;25.50;99.90;;;;;;4988066;28;20042;-77
2023/09/14 09:40:26;;;;;;;12.48;9.35;;;24.80;99.90;;;;;;4989801;28;20057;-77
2023/09/14 09:42:52;;;;;;;14.70;11.10;;;23.80;99.90;;;;;;4992804;28;20451;-75
2023/09/14 09:45:19;;;;;;;12.77;9.77;;;23.30;99.90;;;;;;4992819;28;20069;-77
2023/09/14 09:47:45;;;;;;;12.77;8.85;;;22.70;99.90;;;;;;4998134;28;20049;-77
2023/09/14 09:50:15;;;;;;;10.82;8.70;;;22.20;99.90;;;;;;4993812;28;20038;-76
2023/09/14 09:52:43;;;;;;;13.15;9.80;;;22.00;99.90;;;;;;5008236;28;20061;-76
2023/09/14 09:55:21;;;;;;;13.85;9.23;;;22.00;99.90;;;;;;5001564;28;20038;-76
2023/09/14 09:57:54;;;;;;;11.75;9.18;;;21.90;99.90;;;;;;5001411;28;20101;-76
2023/09/14 10:00:26;;;;;;;11.82;9.20;;;22.00;99.90;;;;;;5000628;28;20042;-76
2023/09/14 10:02:54;;;;;;;17.33;9.55;;;22.10;99.90;;;;;;5000274;28;20030;-76
2023/09/14 10:05:47;;;;;;;10.85;8.68;;;22.00;99.90;;;;;;4998686;28;20029;-76
2023/09/14 10:08:21;;;;;;;11.10;8.47;;;22.00;99.90;;;;;;5000858;28;20041;-76
2023/09/14 10:10:51;;;;;;;13.35;8.80;;;22.00;99.90;;;;;;5004255;28;20034;-76
2023/09/14 10:13:26;;;;;;;12.63;8.75;;;22.10;99.90;;;;;;4994958;28;20066;-76
2023/09/14 10:15:56;;;;;;;10.90;7.75;;;22.20;99.90;;;;;;5005645;28;20116;-76
2023/09/14 10:18:24;;;;;;;11.98;8.63;;;22.20;99.90;;;;;;4994292;28;20033;-76
2023/09/14 10:20:53;;;;;;;14.30;7.93;;;22.20;99.90;;;;;;5002066;28;20038;-76
2023/09/14 10:23:21;;;;;;;13.82;9.23;;;22.20;99.90;;;;;;5004238;28;20085;-76
2023/09/14 10:25:49;;;;;;;11.02;8.50;;;22.20;99.90;;;;;;5003682;28;20030;-76
2023/09/14 10:28:16;;;;;;;12.35;8.25;;;22.20;99.90;;;;;;5003509;28;20034;-76
2023/09/14 10:30:43;;;;;;;12.20;8.38;;;22.20;99.90;;;;;;5008813;28;20026;-76
2023/09/14 10:33:10;;;;;;;9.70;8.20;;;22.10;99.90;;;;;;5002029;28;20026;-76
2023/09/14 10:35:38;;;;;;;12.25;8.65;;;22.10;99.90;;;;;;4998971;28;20057;-77
2023/09/14 10:38:06;;;;;;;10.27;8.05;;;22.00;99.90;;;;;;4998146;28;20034;-77
2023/09/14 10:40:35;;;;;;;9.60;7.78;;;21.90;99.90;;;;;;4991410;28;20027;-77
2023/09/14 10:43:01;;;;;;;11.50;8.68;;;21.70;99.90;;;;;;4994204;28;20022;-76
2023/09/14 10:45:31;;;;;;;12.18;8.32;;;21.60;99.90;;;;;;4999732;28;20533;-77
2023/09/14 10:47:58;;;;;;;11.30;7.70;;;21.60;99.90;;;;;;4993065;28;20105;-77
2023/09/14 10:50:25;;;;;;;12.30;7.75;;;21.60;99.90;;;;;;4997264;28;20114;-76
2023/09/14 10:52:53;;;;;;;10.73;7.50;;;21.60;99.90;;;;;;4997677;28;20038;-76
2023/09/14 10:55:24;;;;;;;12.90;8.77;;;21.50;99.90;;;;;;4993713;28;20022;-77
2023/09/14 10:57:51;;;;;;;12.45;8.52;;;21.60;99.90;;;;;;4993808;28;20077;-76
2023/09/14 11:00:38;;;;;;;10.27;8.55;;;21.70;99.90;;;;;;4998333;28;20038;-76
2023/09/14 11:03:05;;;;;;;11.70;8.30;;;21.80;99.90;;;;;;4993159;28;20091;-77
2023/09/14 11:05:48;;;;;;;11.63;8.88;;;21.70;99.90;;;;;;5002311;28;20032;-77
2023/09/14 11:08:17;;;;;;;10.50;8.73;;;21.80;99.90;;;;;;5000545;28;20033;-77
2023/09/14 11:10:56;;;;;;;12.27;8.60;;;21.70;99.90;;;;;;4995067;28;20029;-77
2023/09/14 11:13:25;;;;;;;12.82;8.63;;;21.70;99.90;;;;;;5000098;28;20030;-76
2023/09/14 11:15:55;;;;;;;11.73;8.18;;;22.00;99.90;;;;;;4993454;28;20049;-77
2023/09/14 11:18:34;;;;;;;10.15;8.70;;;22.60;99.90;;;;;;5001417;28;20030;-77
2023/09/14 11:20:59;;;;;;;9.00;7.95;;;23.10;99.90;;;;;;5001583;28;20038;-77
2023/09/14 11:23:35;;;;;;;10.20;7.95;;;23.60;99.90;;;;;;4998755;28;20114;-77
2023/09/14 11:26:01;;;;;;;9.68;7.53;;;23.90;99.90;;;;;;4999009;28;20025;-76
2023/09/14 11:28:26;;;;;;;12.15;7.70;;;23.70;99.90;;;;;;5001333;28;20030;-76
2023/09/14 11:30:52;;;;;;;10.75;8.05;;;23.80;99.90;;;;;;5014845;28;20025;-77
2023/09/14 11:33:18;;;;;;;12.38;7.03;;;24.00;99.90;;;;;;5006330;28;20026;-76
2023/09/14 11:35:48;;;;;;;9.20;7.00;;;24.40;99.90;;;;;;5001017;28;20050;-77
2023/09/14 11:38:25;;;;;;;9.77;7.97;;;24.60;99.90;;;;;;4998339;28;20034;-77
2023/09/14 11:40:53;;;;;;;8.35;7.18;;;24.80;99.90;;;;;;5004572;28;20060;-77
2023/09/14 11:43:32;;;;;;;9.43;7.43;;;24.70;99.90;;;;;;5000471;28;20136;-77
2023/09/14 11:46:00;;;;;;;9.75;7.07;;;24.60;99.90;;;;;;5001504;28;20021;-76
2023/09/14 11:48:33;;;;;;;10.43;6.85;;;24.90;99.90;;;;;;4998763;28;20034;-77
2023/09/14 11:51:04;;;;;;;8.48;5.93;;;25.10;99.90;;;;;;4997092;28;20138;-77
2023/09/14 11:53:37;;;;;;;7.30;5.45;;;25.30;99.90;;;;;;4995187;28;20024;-77
2023/09/14 11:56:03;;;;;;;6.93;5.60;;;25.60;99.90;;;;;;5003285;28;20037;-77
2023/09/14 11:58:33;;;;;;;8.40;5.07;;;25.90;99.90;;;;;;4998180;28;20256;-76
2023/09/14 12:00:59;;;;;;;6.53;4.95;;;25.80;99.90;;;;;;4989827;28;20018;-77
2023/09/14 12:03:27;;;;;;;7.57;5.05;;;25.90;99.90;;;;;;4990442;28;20042;-77
2023/09/14 12:05:55;;;;;;;7.55;4.82;;;26.00;99.90;;;;;;4995925;28;20034;-77
2023/09/14 12:08:21;;;;;;;5.95;4.53;;;26.20;99.90;;;;;;5003564;28;20031;-77
2023/09/14 12:10:52;;;;;;;9.05;4.40;;;26.20;99.90;;;;;;4992495;28;20034;-77
2023/09/14 12:13:18;;;;;;;5.72;4.07;;;26.20;99.90;;;;;;4988241;28;20034;-76
2023/09/14 12:15:45;;;;;;;5.40;4.07;;;26.40;99.90;;;;;;4990391;28;20096;-77
2023/09/14 12:18:12;;;;;;;5.28;3.72;;;26.50;99.90;;;;;;4996825;28;20065;-76
2023/09/14 12:20:44;;;;;;;5.63;4.07;;;26.50;99.90;;;;;;4999537;28;20154;-76
2023/09/14 12:23:10;;;;;;;4.55;3.70;;;26.40;99.90;;;;;;5006231;28;20053;-77
2023/09/14 12:25:38;;;;;;;5.00;3.47;;;26.30;99.90;;;;;;4995826;28;20034;-77
2023/09/14 12:28:07;;;;;;;7.22;4.40;;;26.10;99.90;;;;;;4992509;28;20030;-78
2023/09/14 12:30:34;;;;;;;6.07;3.70;;;26.20;99.90;;;;;;4993260;28;20034;-77
2023/09/14 12:33:02;;;;;;;7.90;4.47;;;26.60;99.90;;;;;;5003923;28;20109;-77